Time;durP1;ratioP1;P1;durP2;ratioP2;P2;SDS_P1;SDS_P2;PMS_P1;PMS_P2;Temp;Humidity;BMP_temperature;BMP_pressure;BME280_temperature;BME280_humidity;BME280_pressure;Samples;Min_cycle;Max_cycle;Signal;HPM_P1;HPM_P2
2024/01/21 00:00:15;;;;;;;23.88;9.82;;;3.90;99.90;;;;;;7395428;19;20014;-80
2024/01/21 00:02:48;;;;;;;17.98;9.35;;;3.90;99.90;;;;;;7393165;19;20030;-78
2024/01/21 00:05:17;;;;;;;25.00;9.85;;;3.90;99.90;;;;;;7396744;19;20364;-79
2024/01/21 00:07:51;;;;;;;25.73;11.18;;;4.00;99.90;;;;;;7395531;19;20424;-81
2024/01/21 00:10:20;;;;;;;25.67;10.25;;;4.00;99.90;;;;;;7397930;19;20044;-81
2024/01/21 00:12:48;;;;;;;25.05;9.95;;;4.00;99.90;;;;;;7411294;19;20014;-81
2024/01/21 00:15:17;;;;;;;23.98;10.68;;;4.10;99.90;;;;;;7390741;19;20239;-81
2024/01/21 00:17:49;;;;;;;22.48;11.18;;;4.10;99.90;;;;;;7389020;19;20019;-81
2024/01/21 00:20:19;;;;;;;31.17;11.40;;;4.00;99.90;;;;;;7394165;19;20007;-80
2024/01/21 00:22:50;;;;;;;27.00;11.13;;;4.10;99.90;;;;;;7392681;19;20026;-81
2024/01/21 00:25:19;;;;;;;25.35;10.25;;;4.10;99.90;;;;;;7393565;19;20005;-81
2024/01/21 00:27:47;;;;;;;22.25;9.75;;;4.10;99.90;;;;;;7417398;19;20050;-81
2024/01/21 00:30:17;;;;;;;31.65;10.02;;;4.10;99.90;;;;;;7391684;19;20003;-78
2024/01/21 00:32:48;;;;;;;20.42;10.45;;;4.10;99.90;;;;;;7390523;19;20010;-80
2024/01/21 00:35:17;;;;;;;22.25;10.25;;;4.10;99.90;;;;;;7388701;19;20014;-80
2024/01/21 00:37:46;;;;;;;22.77;10.13;;;4.10;99.90;;;;;;7388143;19;20378;-80
2024/01/21 00:40:15;;;;;;;24.95;10.70;;;4.10;99.90;;;;;;7386868;19;20241;-79
2024/01/21 00:42:43;;;;;;;19.75;9.02;;;4.20;99.90;;;;;;7414737;19;20011;-80
2024/01/21 00:45:12;;;;;;;22.25;10.75;;;4.20;99.90;;;;;;7389882;19;20018;-80
2024/01/21 00:47:41;;;;;;;27.10;10.75;;;4.20;99.90;;;;;;7389310;19;20011;-80
2024/01/21 00:50:18;;;;;;;21.83;9.75;;;4.20;99.90;;;;;;7389069;19;20010;-80
2024/01/21 00:52:47;;;;;;;26.35;10.18;;;4.10;99.90;;;;;;7387385;19;20048;-79
2024/01/21 00:55:18;;;;;;;26.40;9.52;;;4.10;99.90;;;;;;7386037;19;20006;-81
2024/01/21 00:57:52;;;;;;;21.33;9.77;;;4.10;99.90;;;;;;7409415;19;20038;-80
2024/01/21 01:00:25;;;;;;;20.98;10.43;;;4.10;99.90;;;;;;7385889;19;20017;-80
2024/01/21 01:02:55;;;;;;;21.10;10.57;;;4.10;99.90;;;;;;7386706;19;20226;-80
2024/01/21 01:05:32;;;;;;;22.92;10.80;;;4.10;99.90;;;;;;7386269;19;20010;-80
2024/01/21 01:08:02;;;;;;;21.67;10.13;;;4.10;99.90;;;;;;7386112;19;20031;-80
2024/01/21 01:10:31;;;;;;;22.50;10.10;;;4.00;99.90;;;;;;7387592;19;20021;-80
2024/01/21 01:12:59;;;;;;;21.35;9.10;;;4.00;99.90;;;;;;7408585;19;20035;-80
2024/01/21 01:15:33;;;;;;;20.73;10.10;;;4.10;99.90;;;;;;7386451;19;20036;-79
2024/01/21 01:18:02;;;;;;;23.55;10.07;;;4.10;99.90;;;;;;7387266;19;20550;-80
2024/01/21 01:20:33;;;;;;;24.55;9.57;;;4.10;99.90;;;;;;7385533;19;20011;-80
2024/01/21 01:23:02;;;;;;;26.25;10.85;;;4.10;99.90;;;;;;7385932;19;20066;-81
2024/01/21 01:25:31;;;;;;;27.38;9.82;;;4.10;99.90;;;;;;7386161;19;20019;-80
2024/01/21 01:28:02;;;;;;;23.60;10.10;;;4.10;99.90;;;;;;7406682;19;20027;-79
2024/01/21 01:30:31;;;;;;;18.88;9.23;;;4.10;99.90;;;;;;7386498;19;20007;-80
2024/01/21 01:33:01;;;;;;;23.48;9.27;;;4.10;99.90;;;;;;7385831;19;20006;-80
2024/01/21 01:35:29;;;;;;;26.00;11.23;;;4.10;99.90;;;;;;7386949;19;20039;-79
2024/01/21 01:38:05;;;;;;;24.05;10.10;;;4.10;99.90;;;;;;7386073;19;19998;-80
2024/01/21 01:40:34;;;;;;;23.35;10.07;;;4.10;99.90;;;;;;7387322;19;20113;-80
2024/01/21 01:43:03;;;;;;;20.65;9.40;;;4.10;99.90;;;;;;7408911;19;20003;-80
2024/01/21 01:45:32;;;;;;;20.75;9.60;;;4.20;99.90;;;;;;7386909;19;20010;-79
2024/01/21 01:48:00;;;;;;;24.77;9.95;;;4.20;99.90;;;;;;7387642;19;20035;-79
2024/01/21 01:50:32;;;;;;;20.65;9.45;;;4.20;99.90;;;;;;7386398;19;20042;-79
2024/01/21 01:53:03;;;;;;;18.58;9.52;;;4.20;99.90;;;;;;7384735;19;20011;-78
2024/01/21 01:55:32;;;;;;;27.52;10.23;;;4.20;99.90;;;;;;7386066;19;20017;-80
2024/01/21 01:58:01;;;;;;;21.60;9.50;;;4.30;99.90;;;;;;7406271;19;20003;-80
2024/01/21 02:00:31;;;;;;;27.77;11.10;;;4.30;99.90;;;;;;7388023;19;20007;-80
2024/01/21 02:03:15;;;;;;;25.20;11.38;;;4.30;99.90;;;;;;7386147;19;20011;-81
2024/01/21 02:05:44;;;;;;;20.85;10.45;;;4.30;99.90;;;;;;7384416;19;20315;-80
2024/01/21 02:08:16;;;;;;;18.30;9.65;;;4.30;99.90;;;;;;7391445;19;20021;-80
2024/01/21 02:10:46;;;;;;;23.85;10.30;;;4.30;99.90;;;;;;7393872;19;20007;-80
2024/01/21 02:13:15;;;;;;;23.80;9.50;;;4.30;99.90;;;;;;7413246;19;20048;-81
2024/01/21 02:15:44;;;;;;;24.90;11.13;;;4.30;99.90;;;;;;7388384;19;20010;-80
2024/01/21 02:18:19;;;;;;;26.73;11.10;;;4.40;99.90;;;;;;7388706;19;20006;-81
2024/01/21 02:20:49;;;;;;;21.60;9.57;;;4.40;99.90;;;;;;7390240;19;20031;-81
2024/01/21 02:23:20;;;;;;;26.77;10.98;;;4.40;99.90;;;;;;7392350;19;20011;-81
2024/01/21 02:25:52;;;;;;;20.00;9.90;;;4.40;99.90;;;;;;7397046;19;20046;-80
2024/01/21 02:28:21;;;;;;;19.95;10.35;;;4.30;99.90;;;;;;7404547;19;20014;-81
2024/01/21 02:30:49;;;;;;;16.95;9.52;;;4.40;99.90;;;;;;7426695;19;20092;-81
2024/01/21 02:33:20;;;;;;;24.02;9.45;;;4.40;99.90;;;;;;7403070;19;20019;-81
2024/01/21 02:35:51;;;;;;;22.45;10.48;;;4.40;99.90;;;;;;7395817;19;19998;-81
2024/01/21 02:38:26;;;;;;;26.23;10.73;;;4.40;99.90;;;;;;7388850;19;19998;-80
2024/01/21 02:41:00;;;;;;;22.92;10.57;;;4.40;99.90;;;;;;7389736;19;20007;-81
2024/01/21 02:43:29;;;;;;;28.00;9.65;;;4.40;99.90;;;;;;7392100;19;20465;-80
2024/01/21 02:45:58;;;;;;;26.73;10.50;;;4.30;99.90;;;;;;7417973;19;20007;-80
2024/01/21 02:48:26;;;;;;;32.75;10.48;;;4.30;99.90;;;;;;7394238;19;20747;-79
2024/01/21 02:51:00;;;;;;;22.42;9.32;;;4.30;99.90;;;;;;7393752;19;20007;-79
2024/01/21 02:53:29;;;;;;;22.50;9.38;;;4.30;99.90;;;;;;7395494;19;20357;-78
2024/01/21 02:55:58;;;;;;;18.50;9.65;;;4.30;99.90;;;;;;7395156;19;20013;-81
2024/01/21 02:58:27;;;;;;;20.20;9.40;;;4.40;99.90;;;;;;7391789;19;20346;-79
2024/01/21 03:00:55;;;;;;;23.55;9.63;;;4.40;99.90;;;;;;7412928;19;20010;-80
2024/01/21 03:03:24;;;;;;;20.67;9.65;;;4.40;99.90;;;;;;7390869;19;20007;-80
2024/01/21 03:05:56;;;;;;;21.48;10.02;;;4.40;99.90;;;;;;7389211;19;20011;-80
2024/01/21 03:08:25;;;;;;;21.02;10.02;;;4.50;99.90;;;;;;7390688;19;20134;-80
2024/01/21 03:10:56;;;;;;;20.92;9.73;;;4.40;99.90;;;;;;7389896;19;20235;-79
2024/01/21 03:13:25;;;;;;;19.50;9.38;;;4.50;99.90;;;;;;7390308;19;20018;-80
2024/01/21 03:15:54;;;;;;;19.80;9.43;;;4.50;99.90;;;;;;7408594;19;20014;-80
2024/01/21 03:18:25;;;;;;;21.05;9.60;;;4.50;99.90;;;;;;7389714;19;20010;-79
2024/01/21 03:20:56;;;;;;;21.48;9.57;;;4.50;99.90;;;;;;7394528;19;20011;-79
2024/01/21 03:23:24;;;;;;;15.77;7.78;;;4.50;99.90;;;;;;7391517;19;20035;-79
2024/01/21 03:25:56;;;;;;;21.77;9.13;;;4.40;99.90;;;;;;7392097;19;20020;-80
2024/01/21 03:28:29;;;;;;;28.35;10.05;;;4.40;99.90;;;;;;7410541;19;20003;-80
2024/01/21 03:30:59;;;;;;;21.63;10.38;;;4.40;99.90;;;;;;7395465;19;20007;-80
2024/01/21 03:33:30;;;;;;;18.60;8.23;;;4.50;99.90;;;;;;7392259;19;20253;-81
2024/01/21 03:35:59;;;;;;;21.73;8.18;;;4.50;99.90;;;;;;7392657;19;20003;-81
2024/01/21 03:38:31;;;;;;;22.63;8.95;;;4.50;99.90;;;;;;7391045;19;20014;-82
2024/01/21 03:41:03;;;;;;;22.92;8.50;;;4.50;99.90;;;;;;7391960;19;20017;-81
2024/01/21 03:43:33;;;;;;;16.88;8.75;;;4.40;99.90;;;;;;7391825;19;20011;-81
2024/01/21 03:46:07;;;;;;;19.25;8.23;;;4.40;99.90;;;;;;7410910;19;20011;-81
2024/01/21 03:48:36;;;;;;;22.73;9.43;;;4.40;99.90;;;;;;7391108;19;20019;-80
2024/01/21 03:51:08;;;;;;;18.42;8.57;;;4.50;99.90;;;;;;7390376;19;20007;-81
2024/01/21 03:53:39;;;;;;;18.23;9.18;;;4.50;99.90;;;;;;7391201;19;20283;-80
2024/01/21 03:56:13;;;;;;;17.70;8.50;;;4.60;99.90;;;;;;7393251;19;20413;-80
2024/01/21 03:58:42;;;;;;;17.08;8.40;;;4.60;99.90;;;;;;7394382;19;20099;-81
2024/01/21 04:01:11;;;;;;;16.83;7.90;;;4.60;99.90;;;;;;7411321;19;20014;-81
2024/01/21 04:03:39;;;;;;;16.23;7.47;;;4.60;99.90;;;;;;7392614;19;20031;-81
2024/01/21 04:06:08;;;;;;;19.10;7.13;;;4.60;99.90;;;;;;7392751;19;20002;-81
2024/01/21 04:08:37;;;;;;;16.40;6.95;;;4.60;99.90;;;;;;7391532;19;20232;-80
2024/01/21 04:11:16;;;;;;;24.98;7.43;;;4.40;99.90;;;;;;7391772;19;20019;-79
2024/01/21 04:13:45;;;;;;;24.90;7.28;;;4.20;99.90;;;;;;7392463;19;20017;-81
2024/01/21 04:16:14;;;;;;;16.73;7.57;;;4.30;99.90;;;;;;7415493;19;20242;-80
2024/01/21 04:18:48;;;;;;;16.08;7.55;;;4.40;99.90;;;;;;7394404;19;20007;-80
2024/01/21 04:21:16;;;;;;;14.73;7.32;;;4.50;99.90;;;;;;7394755;19;20006;-80
2024/01/21 04:23:45;;;;;;;19.10;6.95;;;4.60;99.90;;;;;;7394779;19;20420;-79
2024/01/21 04:26:21;;;;;;;12.55;7.07;;;4.50;99.90;;;;;;7398946;19;20011;-81
2024/01/21 04:28:53;;;;;;;14.52;7.10;;;4.60;99.90;;;;;;7402705;19;20030;-80
2024/01/21 04:31:23;;;;;;;12.38;7.20;;;4.60;99.90;;;;;;7430298;19;20011;-80
2024/01/21 04:33:52;;;;;;;14.52;7.00;;;4.70;99.90;;;;;;7408458;19;20019;-79
2024/01/21 04:36:23;;;;;;;13.05;6.95;;;4.80;99.90;;;;;;7407590;19;19999;-78
2024/01/21 04:38:53;;;;;;;14.32;7.07;;;4.80;99.90;;;;;;7405524;19;20068;-79
2024/01/21 04:41:30;;;;;;;16.85;6.57;;;4.80;99.90;;;;;;7390949;19;20010;-79
2024/01/21 04:44:01;;;;;;;9.55;5.55;;;4.80;99.90;;;;;;7388259;19;20007;-79
2024/01/21 04:46:30;;;;;;;11.77;6.03;;;4.80;99.90;;;;;;7408327;19;20006;-80
2024/01/21 04:49:12;;;;;;;16.13;6.80;;;4.80;99.90;;;;;;7387487;19;20003;-79
2024/01/21 04:51:42;;;;;;;13.02;6.03;;;4.80;99.90;;;;;;7387409;19;20016;-81
2024/01/21 04:54:12;;;;;;;13.88;6.47;;;4.90;99.90;;;;;;7388130;19;20006;-79
2024/01/21 04:56:44;;;;;;;15.02;6.38;;;4.80;99.90;;;;;;7387999;19;20015;-80
2024/01/21 04:59:12;;;;;;;13.38;6.00;;;4.50;99.90;;;;;;7388336;19;20013;-80
2024/01/21 05:01:43;;;;;;;12.38;5.53;;;4.70;99.90;;;;;;7391518;19;20342;-80
2024/01/21 05:04:16;;;;;;;10.73;5.45;;;4.50;99.90;;;;;;7409901;19;20030;-80
2024/01/21 05:06:44;;;;;;;11.52;5.85;;;4.70;99.90;;;;;;7388439;19;20026;-80
2024/01/21 05:09:13;;;;;;;9.40;5.28;;;4.80;99.90;;;;;;7387019;19;20003;-79
2024/01/21 05:11:46;;;;;;;16.40;6.13;;;4.80;99.90;;;;;;7386122;19;20049;-79
2024/01/21 05:14:15;;;;;;;13.25;5.47;;;4.70;99.90;;;;;;7388578;19;20030;-79
2024/01/21 05:16:44;;;;;;;8.05;4.63;;;4.70;99.90;;;;;;7389996;19;20031;-79
2024/01/21 05:19:16;;;;;;;12.07;5.05;;;4.80;99.90;;;;;;7410635;19;20038;-81
2024/01/21 05:21:47;;;;;;;10.50;5.90;;;4.60;99.90;;;;;;7386480;19;20015;-80
2024/01/21 05:24:17;;;;;;;9.27;5.18;;;4.80;99.90;;;;;;7386474;19;20229;-80
2024/01/21 05:26:49;;;;;;;9.35;4.90;;;4.90;99.90;;;;;;7386317;19;20033;-80
2024/01/21 05:29:18;;;;;;;12.88;5.88;;;5.00;99.90;;;;;;7385961;19;20045;-80
2024/01/21 05:31:51;;;;;;;9.57;5.22;;;5.00;99.90;;;;;;7386065;19;20005;-81
2024/01/21 05:34:20;;;;;;;9.38;5.30;;;5.00;99.90;;;;;;7409658;19;20090;-81
2024/01/21 05:36:50;;;;;;;11.00;5.82;;;5.00;99.90;;;;;;7386564;19;20468;-78
2024/01/21 05:39:18;;;;;;;14.40;6.00;;;4.90;99.90;;;;;;7387283;19;20010;-80
2024/01/21 05:42:02;;;;;;;8.77;5.20;;;5.00;99.90;;;;;;7386330;19;20119;-80
2024/01/21 05:44:31;;;;;;;10.80;5.55;;;5.10;99.90;;;;;;7386792;19;20011;-80
2024/01/21 05:47:02;;;;;;;19.20;5.78;;;5.10;99.90;;;;;;7387290;19;20007;-80
2024/01/21 05:49:33;;;;;;;13.10;5.80;;;5.10;99.90;;;;;;7409909;19;20003;-79
2024/01/21 05:52:04;;;;;;;10.30;5.97;;;4.80;99.90;;;;;;7387247;19;20006;-79
2024/01/21 05:54:33;;;;;;;13.20;5.40;;;4.90;99.90;;;;;;7385818;19;20014;-80
2024/01/21 05:57:04;;;;;;;15.38;5.60;;;5.00;99.90;;;;;;7389872;19;20006;-80
2024/01/21 05:59:36;;;;;;;;;;;4.90;99.90;;;;;;7390447;19;20010;-81
2024/01/21 06:02:07;;;;;;;7.20;4.10;;;5.00;99.90;;;;;;7385888;19;19924;-81
2024/01/21 06:04:37;;;;;;;10.88;5.00;;;4.90;99.90;;;;;;7408862;19;20010;-81
2024/01/21 06:07:06;;;;;;;10.88;5.28;;;4.90;99.90;;;;;;7386244;19;20260;-80
2024/01/21 06:09:35;;;;;;;13.43;5.97;;;4.80;99.90;;;;;;7387220;19;20006;-81
2024/01/21 06:12:10;;;;;;;8.43;4.82;;;4.90;99.90;;;;;;7389582;19;20026;-80
2024/01/21 06:14:39;;;;;;;9.82;5.13;;;4.80;99.90;;;;;;7392236;19;20107;-81
2024/01/21 06:17:08;;;;;;;12.80;6.30;;;5.00;99.90;;;;;;7396864;19;20000;-81
2024/01/21 06:19:37;;;;;;;16.15;5.70;;;5.10;99.90;;;;;;7418893;19;20338;-82
2024/01/21 06:22:06;;;;;;;15.93;5.82;;;5.10;99.90;;;;;;7396861;19;20003;-81
2024/01/21 06:24:41;;;;;;;12.05;6.07;;;5.00;99.90;;;;;;7397342;19;20014;-80
2024/01/21 06:27:13;;;;;;;12.70;5.53;;;5.10;99.90;;;;;;7397316;19;20006;-81
2024/01/21 06:29:41;;;;;;;;;;;5.00;99.90;;;;;;7400019;19;20010;-80
2024/01/21 06:32:12;;;;;;;8.10;4.18;;;5.10;99.90;;;;;;7402499;19;19934;-79
2024/01/21 06:34:40;;;;;;;9.05;5.10;;;5.10;99.90;;;;;;7434514;19;20032;-80
2024/01/21 06:37:09;;;;;;;14.77;5.57;;;5.20;99.90;;;;;;7412171;19;20030;-79
2024/01/21 06:39:38;;;;;;;10.70;5.38;;;5.20;99.90;;;;;;7412470;19;20011;-79
2024/01/21 06:42:15;;;;;;;21.65;6.03;;;5.30;99.90;;;;;;7410678;19;20003;-79
2024/01/21 06:44:46;;;;;;;10.13;5.55;;;5.30;99.90;;;;;;7392299;19;19999;-78
2024/01/21 06:47:15;;;;;;;;;;;5.10;99.90;;;;;;7393782;19;20011;-80
2024/01/21 06:49:47;;;;;;;9.60;5.43;;;5.20;99.90;;;;;;7413902;19;19940;-80
2024/01/21 06:52:16;;;;;;;12.02;5.53;;;5.20;99.90;;;;;;7392953;19;20009;-80
2024/01/21 06:54:45;;;;;;;11.35;6.07;;;5.20;99.90;;;;;;7394706;19;20031;-79
2024/01/21 06:57:16;;;;;;;9.85;5.55;;;5.30;99.90;;;;;;7393156;19;20006;-80
2024/01/21 06:59:46;;;;;;;;;;;5.30;99.90;;;;;;7393290;19;20034;-79
2024/01/21 07:02:15;;;;;;;10.95;4.72;;;5.30;99.90;;;;;;7390645;19;21072;-79
2024/01/21 07:04:49;;;;;;;12.23;5.90;;;5.30;99.90;;;;;;7412957;19;20123;-79
2024/01/21 07:07:21;;;;;;;14.90;5.72;;;5.30;99.90;;;;;;7391909;19;20011;-79
2024/01/21 07:09:50;;;;;;;12.10;6.13;;;5.30;99.90;;;;;;7391578;19;20010;-79
2024/01/21 07:12:23;;;;;;;10.55;5.32;;;5.40;99.90;;;;;;7390657;19;20011;-79
2024/01/21 07:14:55;;;;;;;13.25;6.40;;;5.30;99.90;;;;;;7393683;19;20003;-80
2024/01/21 07:17:24;;;;;;;9.73;6.00;;;5.30;99.90;;;;;;7390489;19;20002;-79
2024/01/21 07:19:54;;;;;;;10.93;5.65;;;5.30;99.90;;;;;;7408285;19;20024;-79
2024/01/21 07:22:22;;;;;;;13.43;5.68;;;5.40;99.90;;;;;;7415240;19;20014;-79
2024/01/21 07:24:56;;;;;;;14.00;5.15;;;5.20;99.90;;;;;;7392897;19;20014;-78
2024/01/21 07:27:30;;;;;;;14.45;5.70;;;5.10;99.90;;;;;;7392981;19;20010;-79
2024/01/21 07:30:01;;;;;;;12.07;5.22;;;5.20;99.90;;;;;;7393490;19;20011;-79
2024/01/21 07:32:29;;;;;;;;;;;5.20;99.90;;;;;;7392469;19;20002;-80
2024/01/21 07:34:58;;;;;;;8.40;4.85;;;5.10;99.90;;;;;;7392224;19;19907;-80
2024/01/21 07:37:27;;;;;;;8.07;4.47;;;5.30;99.90;;;;;;7414343;19;20230;-80
2024/01/21 07:39:56;;;;;;;15.13;5.30;;;5.30;99.90;;;;;;7390986;19;20230;-80
2024/01/21 07:42:27;;;;;;;15.95;5.50;;;5.40;99.90;;;;;;7394204;19;20007;-80
2024/01/21 07:44:56;;;;;;;;;;;5.30;99.90;;;;;;7395618;19;20028;-80
2024/01/21 07:47:25;;;;;;;11.20;4.75;;;5.40;99.90;;;;;;7393964;19;20166;-79
2024/01/21 07:49:56;;;;;;;8.40;4.57;;;5.40;99.90;;;;;;7414143;19;20002;-79
2024/01/21 07:52:24;;;;;;;12.68;5.35;;;5.40;99.90;;;;;;7392520;19;20019;-80
2024/01/21 07:54:57;;;;;;;18.00;5.75;;;5.50;99.90;;;;;;7392014;19;20011;-80
2024/01/21 07:57:28;;;;;;;9.02;4.60;;;5.60;99.90;;;;;;7391860;19;20392;-80
2024/01/21 07:59:57;;;;;;;;;;;5.50;99.90;;;;;;7391192;19;20011;-79
2024/01/21 08:02:27;;;;;;;9.15;4.20;;;5.40;99.90;;;;;;7391198;19;20289;-79
2024/01/21 08:04:57;;;;;;;10.17;4.37;;;5.20;99.90;;;;;;7400282;19;20003;-79
2024/01/21 08:07:29;;;;;;;30.55;6.03;;;5.30;99.90;;;;;;7413509;19;20584;-80
2024/01/21 08:09:59;;;;;;;10.13;5.40;;;5.40;99.90;;;;;;7391793;19;20365;-80
2024/01/21 08:12:32;;;;;;;10.57;4.90;;;5.50;99.90;;;;;;7392540;19;20002;-80
2024/01/21 08:15:02;;;;;;;12.25;5.63;;;5.40;99.90;;;;;;7392692;19;20007;-80
2024/01/21 08:17:35;;;;;;;15.75;5.65;;;5.50;99.90;;;;;;7393702;19;20014;-80
2024/01/21 08:20:07;;;;;;;8.27;4.95;;;5.60;99.90;;;;;;7390000;19;20243;-80
2024/01/21 08:22:36;;;;;;;11.77;5.30;;;5.70;99.90;;;;;;7412180;19;20024;-80
2024/01/21 08:25:07;;;;;;;8.02;4.60;;;5.70;99.90;;;;;;7393018;19;20006;-80
2024/01/21 08:27:38;;;;;;;12.30;4.47;;;5.80;99.90;;;;;;7394363;19;20010;-80
2024/01/21 08:30:10;;;;;;;;;;;5.70;99.90;;;;;;7394442;19;20010;-79
2024/01/21 08:32:41;;;;;;;13.27;4.60;;;5.80;99.90;;;;;;7392874;19;20015;-80
2024/01/21 08:35:20;;;;;;;17.60;4.55;;;5.80;99.90;;;;;;7396678;19;20007;-80
2024/01/21 08:37:51;;;;;;;17.92;5.82;;;5.70;99.90;;;;;;7424070;19;20038;-79
2024/01/21 08:50:42;;;;;;;10.68;4.95;;;5.50;99.90;;;;;;7183458;19;2004322;-80
2024/01/21 08:53:11;;;;;;;18.30;5.25;;;5.50;99.90;;;;;;7388241;19;20010;-80
2024/01/21 08:55:44;;;;;;;10.27;5.43;;;5.60;99.90;;;;;;7409598;19;20006;-81
2024/01/21 08:58:17;;;;;;;9.55;4.47;;;5.60;99.90;;;;;;7385533;19;20010;-81
2024/01/21 09:00:49;;;;;;;85.63;7.55;;;5.70;99.90;;;;;;7388104;19;20062;-80
2024/01/21 09:03:20;;;;;;;13.02;5.60;;;5.80;99.90;;;;;;7389292;19;19999;-81
2024/01/21 09:05:49;;;;;;;7.43;4.50;;;5.90;99.90;;;;;;7389159;19;20034;-80
2024/01/21 09:08:21;;;;;;;11.23;4.85;;;5.90;99.90;;;;;;7391491;19;20007;-80
2024/01/21 09:10:50;;;;;;;14.18;4.55;;;6.00;99.90;;;;;;7412087;19;20033;-80
2024/01/21 09:13:22;;;;;;;13.05;4.63;;;6.10;99.90;;;;;;7388218;19;20010;-82
2024/01/21 09:16:04;;;;;;;11.20;4.38;;;5.90;99.90;;;;;;7389066;19;20030;-82
2024/01/21 09:18:49;;;;;;;7.25;4.22;;;6.00;99.90;;;;;;7387498;19;20019;-81
2024/01/21 09:21:20;;;;;;;8.35;4.40;;;6.10;99.90;;;;;;7386846;19;20002;-81
2024/01/21 09:23:48;;;;;;;13.50;4.55;;;6.00;99.90;;;;;;7385090;19;20360;-78
2024/01/21 09:26:21;;;;;;;7.57;4.03;;;5.90;99.90;;;;;;7382693;19;20031;-81
2024/01/21 09:28:55;;;;;;;15.88;5.15;;;6.00;99.90;;;;;;7407586;19;20031;-80
2024/01/21 09:31:26;;;;;;;14.80;4.63;;;6.10;99.90;;;;;;7384640;19;20142;-76
2024/01/21 09:33:56;;;;;;;17.27;4.65;;;5.90;99.90;;;;;;7379163;19;20011;-76
2024/01/21 09:36:25;;;;;;;8.77;4.18;;;6.00;99.90;;;;;;7379025;19;20503;-75
2024/01/21 09:38:54;;;;;;;9.85;4.97;;;6.20;99.90;;;;;;7379278;19;20058;-77
2024/01/21 09:41:35;;;;;;;6.95;4.25;;;6.20;99.90;;;;;;7378498;19;20091;-76
2024/01/21 09:44:04;;;;;;;16.53;4.80;;;6.30;99.90;;;;;;7401706;19;20003;-75
2024/01/21 09:46:35;;;;;;;9.80;3.97;;;6.40;99.90;;;;;;7378623;19;20074;-76
2024/01/21 09:49:05;;;;;;;;;;;6.40;99.90;;;;;;7382362;19;20079;-74
2024/01/21 09:51:37;;;;;;;8.15;3.78;;;6.50;99.90;;;;;;7389701;19;19966;-74
2024/01/21 09:54:06;;;;;;;9.15;4.82;;;6.40;99.90;;;;;;7387892;19;20006;-76
2024/01/21 09:56:36;;;;;;;9.57;4.07;;;6.40;99.90;;;;;;7387540;19;20011;-75
2024/01/21 09:59:07;;;;;;;11.00;4.18;;;6.20;99.90;;;;;;7407713;19;20135;-76
2024/01/21 10:01:40;;;;;;;9.60;3.80;;;6.00;99.90;;;;;;7387032;19;20021;-76
2024/01/21 10:04:09;;;;;;;6.80;4.15;;;6.00;99.90;;;;;;7389956;19;20003;-76
2024/01/21 10:06:38;;;;;;;17.20;4.70;;;6.30;99.90;;;;;;7387950;19;20084;-77
2024/01/21 10:09:14;;;;;;;7.28;4.43;;;6.10;99.90;;;;;;7387383;19;20695;-76
2024/01/21 10:11:43;;;;;;;13.50;4.43;;;6.40;99.90;;;;;;7388937;19;20086;-76
2024/01/21 10:14:12;;;;;;;12.45;4.75;;;6.50;99.90;;;;;;7412538;19;20066;-76
2024/01/21 10:16:47;;;;;;;9.80;4.35;;;6.60;99.90;;;;;;7391180;19;20002;-78
2024/01/21 10:19:17;;;;;;;13.98;4.55;;;6.80;99.90;;;;;;7386719;19;20074;-78
2024/01/21 10:21:45;;;;;;;14.10;4.38;;;6.70;99.90;;;;;;7388121;19;20031;-77
2024/01/21 10:24:14;;;;;;;7.15;3.88;;;6.70;99.90;;;;;;7388278;19;20365;-78
2024/01/21 10:26:45;;;;;;;11.75;4.55;;;6.80;99.90;;;;;;7386647;19;19999;-77
2024/01/21 10:29:13;;;;;;;9.10;4.70;;;6.90;99.90;;;;;;7409109;19;20029;-78
2024/01/21 10:31:42;;;;;;;9.00;4.13;;;6.90;99.90;;;;;;7386940;19;20381;-77
2024/01/21 10:34:15;;;;;;;7.53;3.63;;;7.00;99.90;;;;;;7390105;19;20007;-77
2024/01/21 10:36:49;;;;;;;10.05;4.38;;;7.10;99.90;;;;;;7386410;19;20003;-75
2024/01/21 10:39:22;;;;;;;9.77;4.28;;;7.20;99.90;;;;;;7386229;19;20006;-74
2024/01/21 10:41:52;;;;;;;7.60;3.72;;;7.20;99.90;;;;;;7388961;19;20062;-75
2024/01/21 10:44:21;;;;;;;9.90;4.57;;;7.10;99.90;;;;;;7408342;19;20011;-74
2024/01/21 10:46:51;;;;;;;11.15;4.38;;;7.30;99.90;;;;;;7388787;19;20088;-76
2024/01/21 10:49:23;;;;;;;11.68;4.63;;;7.40;99.90;;;;;;7399689;19;20003;-77
2024/01/21 10:51:55;;;;;;;14.43;5.70;;;7.50;99.90;;;;;;7403195;19;20014;-77
2024/01/21 10:54:28;;;;;;;12.75;4.80;;;7.60;99.90;;;;;;7402006;19;20039;-76
2024/01/21 10:56:57;;;;;;;8.73;4.50;;;7.60;99.90;;;;;;7403809;19;20017;-76
2024/01/21 10:59:31;;;;;;;11.98;5.03;;;7.60;99.90;;;;;;7421325;19;19999;-77
2024/01/21 11:02:00;;;;;;;9.48;4.75;;;7.30;99.90;;;;;;7393179;19;20384;-77
2024/01/21 11:04:31;;;;;;;11.38;4.55;;;7.30;99.90;;;;;;7386791;19;20027;-77
2024/01/21 11:07:05;;;;;;;9.30;5.05;;;7.20;99.90;;;;;;7386626;19;20007;-77
2024/01/21 11:09:36;;;;;;;10.85;3.72;;;7.00;99.90;;;;;;7387606;19;20003;-77
2024/01/21 11:12:05;;;;;;;11.32;5.13;;;6.90;99.90;;;;;;7386763;19;20237;-78
2024/01/21 11:14:36;;;;;;;13.77;4.93;;;7.30;99.90;;;;;;7386787;19;20007;-78
2024/01/21 11:17:06;;;;;;;11.65;4.75;;;7.30;99.90;;;;;;7406259;19;20085;-76
2024/01/21 11:19:52;;;;;;;11.75;5.43;;;6.90;99.90;;;;;;7387273;19;20226;-85
2024/01/21 11:22:26;;;;;;;10.55;4.78;;;7.20;99.90;;;;;;7393678;19;20017;-80
2024/01/21 11:24:57;;;;;;;17.90;5.07;;;7.40;99.90;;;;;;7390192;19;20049;-78
2024/01/21 11:27:54;;;;;;;12.15;4.88;;;7.50;99.90;;;;;;7390879;19;20002;-84
2024/01/21 11:30:27;;;;;;;5.78;4.15;;;7.30;99.90;;;;;;7392803;19;20018;-82
2024/01/21 11:33:04;;;;;;;10.45;4.57;;;7.40;99.90;;;;;;7391895;19;20358;-82
2024/01/21 11:35:36;;;;;;;12.20;5.68;;;7.50;99.90;;;;;;7410563;19;20014;-79
2024/01/21 11:38:23;;;;;;;9.50;5.38;;;7.60;99.90;;;;;;7390864;19;20010;-81
2024/01/21 11:41:15;;;;;;;;;;;;;;;;;;;;;
2024/01/21 11:43:46;;;;;;;135.15;9.93;;;7.80;99.90;;;;;;7390191;19;20021;-79
2024/01/21 11:46:16;;;;;;;14.43;6.03;;;7.70;99.90;;;;;;7390826;19;20031;-78
2024/01/21 11:48:45;;;;;;;11.52;5.18;;;7.90;99.90;;;;;;7392688;19;20010;-78
2024/01/21 11:51:16;;;;;;;21.65;5.75;;;7.90;99.90;;;;;;7388625;19;20010;-78
2024/01/21 11:53:53;;;;;;;15.32;5.47;;;7.80;99.90;;;;;;7386618;19;20002;-77
2024/01/21 11:56:28;;;;;;;10.98;5.05;;;7.50;99.90;;;;;;7414882;19;20233;-80
2024/01/21 11:59:09;;;;;;;15.52;5.05;;;7.50;99.90;;;;;;7391023;19;20010;-79
2024/01/21 12:01:51;;;;;;;15.07;5.20;;;7.70;99.90;;;;;;7392027;19;20022;-80
2024/01/21 12:04:24;;;;;;;12.40;5.10;;;7.80;99.90;;;;;;7393597;19;20010;-79
2024/01/21 12:07:01;;;;;;;19.80;5.93;;;7.90;99.90;;;;;;7391939;19;20361;-79
2024/01/21 12:09:33;;;;;;;13.52;5.38;;;7.90;99.90;;;;;;7391898;19;20030;-79
2024/01/21 12:12:02;;;;;;;17.30;5.65;;;7.70;99.90;;;;;;7390539;19;20034;-79
2024/01/21 12:14:33;;;;;;;14.00;6.00;;;7.40;99.90;;;;;;7415575;19;20263;-79
2024/01/21 12:17:09;;;;;;;17.98;5.82;;;7.40;99.90;;;;;;7391282;19;20369;-80
2024/01/21 12:19:41;;;;;;;16.38;5.95;;;7.50;99.90;;;;;;7390532;19;20071;-80
2024/01/21 12:22:14;;;;;;;22.63;6.43;;;7.60;99.90;;;;;;7392002;19;20361;-80
2024/01/21 12:24:43;;;;;;;11.75;5.60;;;7.80;99.90;;;;;;7394216;19;20135;-79
2024/01/21 12:27:17;;;;;;;13.82;6.07;;;7.80;99.90;;;;;;7393638;19;20011;-78
2024/01/21 12:29:51;;;;;;;21.10;6.38;;;7.90;99.90;;;;;;7393945;19;20025;-80
2024/01/21 12:32:24;;;;;;;18.30;6.13;;;8.00;99.90;;;;;;7409957;19;20014;-80
2024/01/21 12:34:57;;;;;;;13.70;5.35;;;8.10;99.90;;;;;;7390191;19;19999;-81
2024/01/21 12:37:36;;;;;;;16.98;5.47;;;8.10;99.90;;;;;;7390121;19;20015;-80
2024/01/21 12:40:34;;;;;;;14.25;6.28;;;7.80;99.90;;;;;;7390208;19;20002;-79
2024/01/21 12:43:08;;;;;;;11.77;5.25;;;8.00;99.90;;;;;;7390845;19;20273;-79
2024/01/21 12:45:53;;;;;;;22.15;6.05;;;7.90;99.90;;;;;;7391080;19;20031;-80
2024/01/21 12:48:52;;;;;;;18.23;6.13;;;7.90;99.90;;;;;;7391786;19;20007;-82
2024/01/21 12:51:32;;;;;;;;;;;;;;;;;;;;;
2024/01/21 12:54:38;;;;;;;14.10;5.97;;;8.00;99.90;;;;;;7393198;19;20007;-80
2024/01/21 12:57:46;;;;;;;;;;;;;;;;;;;;;
2024/01/21 13:00:23;;;;;;;14.80;6.63;;;7.90;99.90;;;;;;7391392;19;20483;-83
2024/01/21 13:05:49;;;;;;;;;;;8.10;99.90;;;;;;7419638;19;20006;-80
2024/01/21 13:08:37;;;;;;;17.52;6.70;;;8.10;99.90;;;;;;7400291;19;20005;-79
2024/01/21 13:11:14;;;;;;;14.70;7.05;;;8.20;99.90;;;;;;7422530;19;20014;-79
2024/01/21 13:13:58;;;;;;;17.23;6.65;;;8.20;99.90;;;;;;7404137;19;20042;-79
2024/01/21 13:16:44;;;;;;;18.45;7.28;;;7.90;99.90;;;;;;7403268;19;20046;-78
2024/01/21 13:19:35;;;;;;;16.67;7.22;;;7.80;99.90;;;;;;7394284;19;20010;-81
2024/01/21 13:22:21;;;;;;;;;;;;;;;;;;;;;
2024/01/21 13:24:57;;;;;;;16.77;6.88;;;7.80;99.90;;;;;;7390521;19;20003;-80
2024/01/21 13:27:45;;;;;;;19.73;7.53;;;7.90;99.90;;;;;;7390206;19;20035;-80
2024/01/21 13:30:43;;;;;;;22.60;7.68;;;8.10;99.90;;;;;;7388348;19;20080;-80
2024/01/21 13:33:29;;;;;;;18.25;8.02;;;8.20;99.90;;;;;;7387059;19;20023;-80